sensor_id;sensor_type;location;lat;lon;timestamp;P1;durP1;ratioP1;P2;durP2;ratioP2
24799;SDS011;12897;50.812;4.430;2022-07-09T00:01:43;4.85;;;1.82;;
24799;SDS011;12897;50.812;4.430;2022-07-09T00:04:10;2.90;;;2.02;;
24799;SDS011;12897;50.812;4.430;2022-07-09T00:06:38;4.40;;;2.47;;
24799;SDS011;12897;50.812;4.430;2022-07-09T00:09:05;5.97;;;2.45;;
24799;SDS011;12897;50.812;4.430;2022-07-09T00:11:33;4.58;;;2.20;;
24799;SDS011;12897;50.812;4.430;2022-07-09T00:14:00;6.20;;;2.12;;
24799;SDS011;12897;50.812;4.430;2022-07-09T00:16:28;3.58;;;1.82;;
24799;SDS011;12897;50.812;4.430;2022-07-09T00:18:55;6.17;;;1.90;;
24799;SDS011;12897;50.812;4.430;2022-07-09T00:21:23;5.00;;;2.20;;
24799;SDS011;12897;50.812;4.430;2022-07-09T00:23:50;4.08;;;2.15;;
24799;SDS011;12897;50.812;4.430;2022-07-09T00:26:18;4.10;;;2.17;;
24799;SDS011;12897;50.812;4.430;2022-07-09T00:28:46;5.90;;;2.42;;
24799;SDS011;12897;50.812;4.430;2022-07-09T00:31:13;4.60;;;2.12;;
24799;SDS011;12897;50.812;4.430;2022-07-09T00:33:41;5.97;;;2.55;;
24799;SDS011;12897;50.812;4.430;2022-07-09T00:36:08;5.83;;;2.00;;
24799;SDS011;12897;50.812;4.430;2022-07-09T00:38:36;4.20;;;2.33;;
24799;SDS011;12897;50.812;4.430;2022-07-09T00:41:05;3.65;;;2.02;;
24799;SDS011;12897;50.812;4.430;2022-07-09T00:43:33;5.53;;;2.17;;
24799;SDS011;12897;50.812;4.430;2022-07-09T00:46:00;2.80;;;1.98;;
24799;SDS011;12897;50.812;4.430;2022-07-09T00:48:28;6.12;;;2.20;;
24799;SDS011;12897;50.812;4.430;2022-07-09T00:50:56;2.87;;;1.87;;
24799;SDS011;12897;50.812;4.430;2022-07-09T00:53:23;5.55;;;2.37;;
24799;SDS011;12897;50.812;4.430;2022-07-09T00:55:52;3.08;;;2.00;;
24799;SDS011;12897;50.812;4.430;2022-07-09T00:58:21;5.78;;;2.30;;
24799;SDS011;12897;50.812;4.430;2022-07-09T01:00:49;5.20;;;1.92;;
24799;SDS011;12897;50.812;4.430;2022-07-09T01:03:17;3.08;;;2.30;;
24799;SDS011;12897;50.812;4.430;2022-07-09T01:05:45;7.62;;;2.10;;
24799;SDS011;12897;50.812;4.430;2022-07-09T01:08:12;4.10;;;2.47;;
24799;SDS011;12897;50.812;4.430;2022-07-09T01:10:40;3.20;;;1.87;;
24799;SDS011;12897;50.812;4.430;2022-07-09T01:13:09;7.12;;;2.30;;
24799;SDS011;12897;50.812;4.430;2022-07-09T01:15:37;5.53;;;2.05;;
24799;SDS011;12897;50.812;4.430;2022-07-09T01:18:04;7.03;;;2.30;;
24799;SDS011;12897;50.812;4.430;2022-07-09T01:20:33;4.03;;;2.37;;
24799;SDS011;12897;50.812;4.430;2022-07-09T01:23:09;4.78;;;2.33;;
24799;SDS011;12897;50.812;4.430;2022-07-09T01:25:41;4.70;;;2.40;;
24799;SDS011;12897;50.812;4.430;2022-07-09T01:28:12;5.50;;;2.60;;
24799;SDS011;12897;50.812;4.430;2022-07-09T01:30:40;3.47;;;2.30;;
24799;SDS011;12897;50.812;4.430;2022-07-09T01:33:08;3.83;;;2.12;;
24799;SDS011;12897;50.812;4.430;2022-07-09T01:35:35;6.33;;;2.00;;
24799;SDS011;12897;50.812;4.430;2022-07-09T01:38:03;4.03;;;2.30;;
24799;SDS011;12897;50.812;4.430;2022-07-09T01:40:30;5.33;;;2.33;;
24799;SDS011;12897;50.812;4.430;2022-07-09T01:42:58;6.20;;;2.50;;
24799;SDS011;12897;50.812;4.430;2022-07-09T01:45:26;4.83;;;2.70;;
24799;SDS011;12897;50.812;4.430;2022-07-09T01:47:53;4.53;;;2.33;;
24799;SDS011;12897;50.812;4.430;2022-07-09T01:50:21;3.72;;;2.08;;
24799;SDS011;12897;50.812;4.430;2022-07-09T01:52:48;6.35;;;2.77;;
24799;SDS011;12897;50.812;4.430;2022-07-09T01:55:17;4.37;;;2.40;;
24799;SDS011;12897;50.812;4.430;2022-07-09T01:57:45;5.95;;;2.72;;
24799;SDS011;12897;50.812;4.430;2022-07-09T02:00:13;4.30;;;2.08;;
24799;SDS011;12897;50.812;4.430;2022-07-09T02:02:40;8.65;;;2.67;;
24799;SDS011;12897;50.812;4.430;2022-07-09T02:05:08;6.87;;;2.60;;
24799;SDS011;12897;50.812;4.430;2022-07-09T02:07:41;3.62;;;2.60;;
24799;SDS011;12897;50.812;4.430;2022-07-09T02:10:09;5.20;;;2.47;;
24799;SDS011;12897;50.812;4.430;2022-07-09T02:12:38;4.03;;;2.60;;
24799;SDS011;12897;50.812;4.430;2022-07-09T02:15:06;5.78;;;2.50;;
24799;SDS011;12897;50.812;4.430;2022-07-09T02:17:36;4.42;;;2.45;;
24799;SDS011;12897;50.812;4.430;2022-07-09T02:20:04;5.72;;;2.60;;
24799;SDS011;12897;50.812;4.430;2022-07-09T02:22:34;7.28;;;2.60;;
24799;SDS011;12897;50.812;4.430;2022-07-09T02:25:02;4.50;;;2.37;;
24799;SDS011;12897;50.812;4.430;2022-07-09T02:27:29;7.67;;;2.47;;
24799;SDS011;12897;50.812;4.430;2022-07-09T02:29:57;6.67;;;2.67;;
24799;SDS011;12897;50.812;4.430;2022-07-09T02:32:24;6.30;;;2.90;;
24799;SDS011;12897;50.812;4.430;2022-07-09T02:34:52;4.08;;;2.70;;
24799;SDS011;12897;50.812;4.430;2022-07-09T02:37:20;7.28;;;2.70;;
24799;SDS011;12897;50.812;4.430;2022-07-09T02:39:47;3.52;;;2.15;;
24799;SDS011;12897;50.812;4.430;2022-07-09T02:42:15;5.78;;;2.95;;
24799;SDS011;12897;50.812;4.430;2022-07-09T02:44:42;3.98;;;2.65;;
24799;SDS011;12897;50.812;4.430;2022-07-09T02:47:10;8.90;;;2.65;;
24799;SDS011;12897;50.812;4.430;2022-07-09T02:49:43;5.97;;;2.80;;
24799;SDS011;12897;50.812;4.430;2022-07-09T02:52:14;11.30;;;2.65;;
24799;SDS011;12897;50.812;4.430;2022-07-09T02:54:42;5.87;;;2.70;;
24799;SDS011;12897;50.812;4.430;2022-07-09T02:57:09;8.73;;;2.62;;
24799;SDS011;12897;50.812;4.430;2022-07-09T02:59:38;4.47;;;2.62;;
24799;SDS011;12897;50.812;4.430;2022-07-09T03:02:06;6.58;;;3.60;;
24799;SDS011;12897;50.812;4.430;2022-07-09T03:04:34;9.13;;;3.30;;
24799;SDS011;12897;50.812;4.430;2022-07-09T03:07:01;5.35;;;2.87;;
24799;SDS011;12897;50.812;4.430;2022-07-09T03:09:29;4.53;;;3.10;;
24799;SDS011;12897;50.812;4.430;2022-07-09T03:11:56;4.53;;;2.85;;
24799;SDS011;12897;50.812;4.430;2022-07-09T03:14:24;7.47;;;3.77;;
24799;SDS011;12897;50.812;4.430;2022-07-09T03:16:51;8.68;;;2.80;;
24799;SDS011;12897;50.812;4.430;2022-07-09T03:19:19;6.10;;;2.98;;
24799;SDS011;12897;50.812;4.430;2022-07-09T03:21:53;5.75;;;2.83;;
24799;SDS011;12897;50.812;4.430;2022-07-09T03:24:21;8.40;;;3.50;;
24799;SDS011;12897;50.812;4.430;2022-07-09T03:26:49;5.22;;;3.40;;
24799;SDS011;12897;50.812;4.430;2022-07-09T03:29:16;7.87;;;3.10;;
24799;SDS011;12897;50.812;4.430;2022-07-09T03:31:44;4.83;;;2.72;;
24799;SDS011;12897;50.812;4.430;2022-07-09T03:34:14;10.35;;;3.42;;
24799;SDS011;12897;50.812;4.430;2022-07-09T03:36:42;5.87;;;3.55;;
24799;SDS011;12897;50.812;4.430;2022-07-09T03:39:09;4.60;;;3.00;;
24799;SDS011;12897;50.812;4.430;2022-07-09T03:41:37;4.22;;;2.70;;
24799;SDS011;12897;50.812;4.430;2022-07-09T03:44:05;6.30;;;2.87;;
24799;SDS011;12897;50.812;4.430;2022-07-09T03:46:32;11.03;;;3.42;;
24799;SDS011;12897;50.812;4.430;2022-07-09T03:49:00;7.83;;;3.22;;
24799;SDS011;12897;50.812;4.430;2022-07-09T03:51:27;5.53;;;3.05;;
24799;SDS011;12897;50.812;4.430;2022-07-09T03:53:55;8.18;;;3.42;;
24799;SDS011;12897;50.812;4.430;2022-07-09T03:56:22;4.78;;;2.90;;
24799;SDS011;12897;50.812;4.430;2022-07-09T03:58:50;8.45;;;3.70;;
24799;SDS011;12897;50.812;4.430;2022-07-09T04:01:18;6.65;;;3.30;;
24799;SDS011;12897;50.812;4.430;2022-07-09T04:03:45;6.00;;;3.50;;
24799;SDS011;12897;50.812;4.430;2022-07-09T04:06:13;5.03;;;3.15;;
24799;SDS011;12897;50.812;4.430;2022-07-09T04:08:41;6.25;;;3.08;;
24799;SDS011;12897;50.812;4.430;2022-07-09T04:11:09;9.10;;;3.20;;
24799;SDS011;12897;50.812;4.430;2022-07-09T04:13:38;9.48;;;3.40;;
24799;SDS011;12897;50.812;4.430;2022-07-09T04:16:06;7.37;;;3.52;;
24799;SDS011;12897;50.812;4.430;2022-07-09T04:18:34;6.95;;;3.12;;
24799;SDS011;12897;50.812;4.430;2022-07-09T04:21:02;7.37;;;3.20;;
24799;SDS011;12897;50.812;4.430;2022-07-09T04:23:30;8.50;;;3.90;;
24799;SDS011;12897;50.812;4.430;2022-07-09T04:25:57;6.03;;;3.22;;
24799;SDS011;12897;50.812;4.430;2022-07-09T04:28:25;10.35;;;3.50;;
24799;SDS011;12897;50.812;4.430;2022-07-09T04:30:52;5.45;;;3.50;;
24799;SDS011;12897;50.812;4.430;2022-07-09T04:33:20;6.53;;;3.55;;
24799;SDS011;12897;50.812;4.430;2022-07-09T04:35:47;6.67;;;3.30;;
24799;SDS011;12897;50.812;4.430;2022-07-09T04:38:15;6.50;;;3.60;;
24799;SDS011;12897;50.812;4.430;2022-07-09T04:40:42;9.50;;;3.60;;
24799;SDS011;12897;50.812;4.430;2022-07-09T04:43:10;12.82;;;4.25;;
24799;SDS011;12897;50.812;4.430;2022-07-09T04:45:38;6.60;;;3.70;;
24799;SDS011;12897;50.812;4.430;2022-07-09T04:48:07;6.10;;;3.40;;
24799;SDS011;12897;50.812;4.430;2022-07-09T04:50:34;6.33;;;4.10;;
24799;SDS011;12897;50.812;4.430;2022-07-09T04:53:02;8.78;;;3.92;;
24799;SDS011;12897;50.812;4.430;2022-07-09T04:55:29;6.25;;;3.85;;
24799;SDS011;12897;50.812;4.430;2022-07-09T04:57:57;5.15;;;3.30;;
24799;SDS011;12897;50.812;4.430;2022-07-09T05:00:24;5.65;;;3.42;;
24799;SDS011;12897;50.812;4.430;2022-07-09T05:02:52;8.58;;;3.83;;
24799;SDS011;12897;50.812;4.430;2022-07-09T05:05:21;6.97;;;3.83;;
24799;SDS011;12897;50.812;4.430;2022-07-09T05:07:49;9.87;;;4.30;;
24799;SDS011;12897;50.812;4.430;2022-07-09T05:10:18;15.58;;;4.15;;
24799;SDS011;12897;50.812;4.430;2022-07-09T05:12:46;11.57;;;4.75;;
24799;SDS011;12897;50.812;4.430;2022-07-09T05:15:13;7.87;;;3.65;;
24799;SDS011;12897;50.812;4.430;2022-07-09T05:17:41;11.48;;;4.00;;
24799;SDS011;12897;50.812;4.430;2022-07-09T05:20:09;9.18;;;3.72;;
24799;SDS011;12897;50.812;4.430;2022-07-09T05:22:37;8.65;;;3.80;;
24799;SDS011;12897;50.812;4.430;2022-07-09T05:25:06;9.05;;;4.10;;
24799;SDS011;12897;50.812;4.430;2022-07-09T05:27:40;9.15;;;3.55;;
24799;SDS011;12897;50.812;4.430;2022-07-09T05:30:09;6.80;;;3.15;;
24799;SDS011;12897;50.812;4.430;2022-07-09T05:32:41;10.53;;;4.28;;
24799;SDS011;12897;50.812;4.430;2022-07-09T05:35:11;7.37;;;3.58;;
24799;SDS011;12897;50.812;4.430;2022-07-09T05:37:42;9.63;;;3.70;;
24799;SDS011;12897;50.812;4.430;2022-07-09T05:40:10;10.70;;;4.50;;
24799;SDS011;12897;50.812;4.430;2022-07-09T05:42:38;9.03;;;3.85;;
24799;SDS011;12897;50.812;4.430;2022-07-09T05:45:12;8.23;;;3.67;;
24799;SDS011;12897;50.812;4.430;2022-07-09T05:47:36;10.70;;;4.83;;
24799;SDS011;12897;50.812;4.430;2022-07-09T05:50:04;12.65;;;4.35;;
24799;SDS011;12897;50.812;4.430;2022-07-09T05:52:33;7.75;;;3.80;;
24799;SDS011;12897;50.812;4.430;2022-07-09T05:55:03;9.40;;;4.53;;
24799;SDS011;12897;50.812;4.430;2022-07-09T05:57:31;8.08;;;4.45;;
24799;SDS011;12897;50.812;4.430;2022-07-09T06:02:46;10.32;;;4.58;;
24799;SDS011;12897;50.812;4.430;2022-07-09T06:05:14;9.13;;;4.28;;
24799;SDS011;12897;50.812;4.430;2022-07-09T06:07:43;11.65;;;4.72;;
24799;SDS011;12897;50.812;4.430;2022-07-09T06:10:11;7.55;;;4.55;;
24799;SDS011;12897;50.812;4.430;2022-07-09T06:12:42;8.13;;;4.87;;
24799;SDS011;12897;50.812;4.430;2022-07-09T06:15:10;8.73;;;4.30;;
24799;SDS011;12897;50.812;4.430;2022-07-09T06:17:40;12.97;;;4.57;;
24799;SDS011;12897;50.812;4.430;2022-07-09T06:20:08;9.95;;;4.45;;
24799;SDS011;12897;50.812;4.430;2022-07-09T06:22:36;9.17;;;4.37;;
24799;SDS011;12897;50.812;4.430;2022-07-09T06:25:05;10.35;;;4.87;;
24799;SDS011;12897;50.812;4.430;2022-07-09T06:27:35;13.45;;;4.53;;
24799;SDS011;12897;50.812;4.430;2022-07-09T06:30:02;13.20;;;4.60;;
24799;SDS011;12897;50.812;4.430;2022-07-09T06:32:31;12.90;;;4.97;;
24799;SDS011;12897;50.812;4.430;2022-07-09T06:34:58;9.70;;;4.17;;
24799;SDS011;12897;50.812;4.430;2022-07-09T06:37:26;9.68;;;3.98;;
24799;SDS011;12897;50.812;4.430;2022-07-09T06:39:54;11.48;;;4.00;;
24799;SDS011;12897;50.812;4.430;2022-07-09T06:42:23;12.00;;;4.30;;
24799;SDS011;12897;50.812;4.430;2022-07-09T06:44:51;14.70;;;4.33;;
24799;SDS011;12897;50.812;4.430;2022-07-09T06:47:18;11.12;;;4.03;;
24799;SDS011;12897;50.812;4.430;2022-07-09T06:49:46;16.00;;;4.62;;
24799;SDS011;12897;50.812;4.430;2022-07-09T06:52:14;10.68;;;4.00;;
24799;SDS011;12897;50.812;4.430;2022-07-09T06:54:41;7.03;;;4.25;;
24799;SDS011;12897;50.812;4.430;2022-07-09T06:57:09;8.93;;;4.10;;
24799;SDS011;12897;50.812;4.430;2022-07-09T06:59:39;8.43;;;4.00;;
24799;SDS011;12897;50.812;4.430;2022-07-09T07:02:07;11.00;;;3.70;;
24799;SDS011;12897;50.812;4.430;2022-07-09T07:04:35;11.08;;;3.62;;
24799;SDS011;12897;50.812;4.430;2022-07-09T07:07:02;10.63;;;3.30;;
24799;SDS011;12897;50.812;4.430;2022-07-09T07:09:30;6.78;;;3.50;;
24799;SDS011;12897;50.812;4.430;2022-07-09T07:11:58;7.47;;;3.33;;
24799;SDS011;12897;50.812;4.430;2022-07-09T07:14:25;10.10;;;3.92;;
24799;SDS011;12897;50.812;4.430;2022-07-09T07:16:53;7.08;;;3.35;;
24799;SDS011;12897;50.812;4.430;2022-07-09T07:19:21;10.75;;;3.85;;
24799;SDS011;12897;50.812;4.430;2022-07-09T07:21:48;8.80;;;3.20;;
24799;SDS011;12897;50.812;4.430;2022-07-09T07:24:16;7.62;;;3.05;;
24799;SDS011;12897;50.812;4.430;2022-07-09T07:26:43;6.65;;;3.20;;
24799;SDS011;12897;50.812;4.430;2022-07-09T07:29:11;15.98;;;6.87;;
24799;SDS011;12897;50.812;4.430;2022-07-09T07:31:39;7.60;;;2.95;;
24799;SDS011;12897;50.812;4.430;2022-07-09T07:34:06;7.80;;;3.08;;
24799;SDS011;12897;50.812;4.430;2022-07-09T07:36:34;8.68;;;3.77;;
24799;SDS011;12897;50.812;4.430;2022-07-09T07:39:03;8.23;;;3.70;;
24799;SDS011;12897;50.812;4.430;2022-07-09T07:41:30;8.43;;;3.87;;
24799;SDS011;12897;50.812;4.430;2022-07-09T07:43:59;9.88;;;3.85;;
24799;SDS011;12897;50.812;4.430;2022-07-09T07:46:26;11.20;;;3.50;;
24799;SDS011;12897;50.812;4.430;2022-07-09T07:48:54;10.63;;;4.30;;
24799;SDS011;12897;50.812;4.430;2022-07-09T07:51:21;11.97;;;3.80;;
24799;SDS011;12897;50.812;4.430;2022-07-09T07:53:50;7.70;;;3.72;;
24799;SDS011;12897;50.812;4.430;2022-07-09T07:56:18;6.50;;;3.83;;
24799;SDS011;12897;50.812;4.430;2022-07-09T07:58:45;12.63;;;4.47;;
24799;SDS011;12897;50.812;4.430;2022-07-09T08:01:13;9.78;;;4.67;;
24799;SDS011;12897;50.812;4.430;2022-07-09T08:03:40;12.30;;;4.78;;
24799;SDS011;12897;50.812;4.430;2022-07-09T08:06:08;8.98;;;5.08;;
24799;SDS011;12897;50.812;4.430;2022-07-09T08:08:35;10.53;;;5.72;;
24799;SDS011;12897;50.812;4.430;2022-07-09T08:11:03;11.35;;;5.53;;
24799;SDS011;12897;50.812;4.430;2022-07-09T08:13:30;12.28;;;5.40;;
24799;SDS011;12897;50.812;4.430;2022-07-09T08:15:58;12.98;;;5.97;;
24799;SDS011;12897;50.812;4.430;2022-07-09T08:18:27;9.75;;;5.72;;
24799;SDS011;12897;50.812;4.430;2022-07-09T08:20:55;12.53;;;6.03;;
24799;SDS011;12897;50.812;4.430;2022-07-09T08:23:24;10.28;;;5.78;;
24799;SDS011;12897;50.812;4.430;2022-07-09T08:25:52;9.63;;;6.05;;
24799;SDS011;12897;50.812;4.430;2022-07-09T08:28:19;10.60;;;6.83;;
24799;SDS011;12897;50.812;4.430;2022-07-09T08:30:47;13.10;;;6.40;;
24799;SDS011;12897;50.812;4.430;2022-07-09T08:33:14;13.53;;;5.58;;
24799;SDS011;12897;50.812;4.430;2022-07-09T08:35:44;11.93;;;5.47;;
24799;SDS011;12897;50.812;4.430;2022-07-09T08:38:11;11.48;;;5.33;;
24799;SDS011;12897;50.812;4.430;2022-07-09T08:40:39;11.08;;;4.62;;
24799;SDS011;12897;50.812;4.430;2022-07-09T08:43:07;15.83;;;5.35;;
24799;SDS011;12897;50.812;4.430;2022-07-09T08:45:36;177.53;;;13.98;;
24799;SDS011;12897;50.812;4.430;2022-07-09T08:50:35;11.30;;;5.20;;
24799;SDS011;12897;50.812;4.430;2022-07-09T08:53:03;12.63;;;5.47;;
24799;SDS011;12897;50.812;4.430;2022-07-09T08:55:31;10.48;;;4.58;;
24799;SDS011;12897;50.812;4.430;2022-07-09T08:58:02;11.15;;;4.80;;
24799;SDS011;12897;50.812;4.430;2022-07-09T09:00:29;12.43;;;4.97;;
24799;SDS011;12897;50.812;4.430;2022-07-09T09:02:58;12.03;;;5.20;;
24799;SDS011;12897;50.812;4.430;2022-07-09T09:05:26;13.03;;;5.80;;
24799;SDS011;12897;50.812;4.430;2022-07-09T09:07:54;13.88;;;6.10;;
24799;SDS011;12897;50.812;4.430;2022-07-09T09:10:24;15.78;;;5.78;;
24799;SDS011;12897;50.812;4.430;2022-07-09T09:12:57;11.97;;;5.30;;
24799;SDS011;12897;50.812;4.430;2022-07-09T09:15:26;10.28;;;6.00;;
24799;SDS011;12897;50.812;4.430;2022-07-09T09:17:54;11.10;;;6.03;;
24799;SDS011;12897;50.812;4.430;2022-07-09T09:20:23;12.88;;;5.72;;
24799;SDS011;12897;50.812;4.430;2022-07-09T09:22:52;12.88;;;6.42;;
24799;SDS011;12897;50.812;4.430;2022-07-09T09:25:22;14.00;;;5.53;;
24799;SDS011;12897;50.812;4.430;2022-07-09T09:27:50;12.65;;;4.80;;
24799;SDS011;12897;50.812;4.430;2022-07-09T09:30:19;15.83;;;5.47;;
24799;SDS011;12897;50.812;4.430;2022-07-09T09:33:09;9.23;;;5.90;;
24799;SDS011;12897;50.812;4.430;2022-07-09T09:35:26;9.93;;;5.85;;
24799;SDS011;12897;50.812;4.430;2022-07-09T09:37:55;10.70;;;5.70;;
24799;SDS011;12897;50.812;4.430;2022-07-09T09:40:23;12.55;;;5.28;;
24799;SDS011;12897;50.812;4.430;2022-07-09T09:42:51;10.50;;;5.97;;
24799;SDS011;12897;50.812;4.430;2022-07-09T09:45:20;13.32;;;6.25;;
24799;SDS011;12897;50.812;4.430;2022-07-09T09:47:48;12.65;;;5.42;;
24799;SDS011;12897;50.812;4.430;2022-07-09T09:50:25;9.05;;;5.85;;
24799;SDS011;12897;50.812;4.430;2022-07-09T09:52:50;15.03;;;7.28;;
24799;SDS011;12897;50.812;4.430;2022-07-09T09:55:20;13.55;;;8.10;;
24799;SDS011;12897;50.812;4.430;2022-07-09T09:57:49;18.57;;;7.10;;
24799;SDS011;12897;50.812;4.430;2022-07-09T10:00:19;11.80;;;8.63;;
24799;SDS011;12897;50.812;4.430;2022-07-09T10:02:47;15.65;;;10.78;;
24799;SDS011;12897;50.812;4.430;2022-07-09T10:05:18;16.10;;;10.28;;
24799;SDS011;12897;50.812;4.430;2022-07-09T10:07:45;17.05;;;11.30;;
24799;SDS011;12897;50.812;4.430;2022-07-09T10:10:17;18.15;;;10.25;;
24799;SDS011;12897;50.812;4.430;2022-07-09T10:12:46;19.45;;;11.90;;
24799;SDS011;12897;50.812;4.430;2022-07-09T10:15:20;23.55;;;14.45;;
24799;SDS011;12897;50.812;4.430;2022-07-09T10:17:52;23.57;;;13.63;;
24799;SDS011;12897;50.812;4.430;2022-07-09T10:20:33;23.77;;;16.70;;
24799;SDS011;12897;50.812;4.430;2022-07-09T10:23:03;21.45;;;18.27;;
24799;SDS011;12897;50.812;4.430;2022-07-09T10:25:41;25.17;;;18.63;;
24799;SDS011;12897;50.812;4.430;2022-07-09T10:28:15;27.98;;;22.60;;
24799;SDS011;12897;50.812;4.430;2022-07-09T10:30:45;30.82;;;23.42;;
24799;SDS011;12897;50.812;4.430;2022-07-09T10:33:35;31.30;;;23.35;;
24799;SDS011;12897;50.812;4.430;2022-07-09T10:35:50;27.05;;;22.82;;
24799;SDS011;12897;50.812;4.430;2022-07-09T10:38:22;33.75;;;23.73;;
24799;SDS011;12897;50.812;4.430;2022-07-09T10:40:56;32.13;;;24.45;;
24799;SDS011;12897;50.812;4.430;2022-07-09T10:43:41;33.78;;;24.37;;
24799;SDS011;12897;50.812;4.430;2022-07-09T10:46:12;31.57;;;23.77;;
24799;SDS011;12897;50.812;4.430;2022-07-09T10:48:41;29.70;;;24.95;;
24799;SDS011;12897;50.812;4.430;2022-07-09T10:51:17;28.42;;;21.10;;
24799;SDS011;12897;50.812;4.430;2022-07-09T10:53:46;31.65;;;25.25;;
24799;SDS011;12897;50.812;4.430;2022-07-09T10:56:17;28.10;;;20.55;;
24799;SDS011;12897;50.812;4.430;2022-07-09T10:58:48;24.80;;;18.37;;
24799;SDS011;12897;50.812;4.430;2022-07-09T11:01:21;27.73;;;19.62;;
24799;SDS011;12897;50.812;4.430;2022-07-09T11:03:52;29.02;;;20.27;;
24799;SDS011;12897;50.812;4.430;2022-07-09T11:06:20;29.18;;;20.65;;
24799;SDS011;12897;50.812;4.430;2022-07-09T11:08:47;25.55;;;17.57;;
24799;SDS011;12897;50.812;4.430;2022-07-09T11:11:21;20.85;;;15.18;;
24799;SDS011;12897;50.812;4.430;2022-07-09T11:13:50;24.25;;;15.75;;
24799;SDS011;12897;50.812;4.430;2022-07-09T11:16:22;17.92;;;14.15;;
24799;SDS011;12897;50.812;4.430;2022-07-09T11:18:50;19.90;;;14.23;;
24799;SDS011;12897;50.812;4.430;2022-07-09T11:21:29;18.92;;;12.10;;
24799;SDS011;12897;50.812;4.430;2022-07-09T11:23:53;22.75;;;11.65;;
24799;SDS011;12897;50.812;4.430;2022-07-09T11:26:21;18.10;;;9.60;;
24799;SDS011;12897;50.812;4.430;2022-07-09T11:28:48;12.20;;;7.70;;
24799;SDS011;12897;50.812;4.430;2022-07-09T11:31:17;14.18;;;7.53;;
24799;SDS011;12897;50.812;4.430;2022-07-09T11:33:46;16.52;;;5.80;;
24799;SDS011;12897;50.812;4.430;2022-07-09T11:36:35;8.65;;;3.98;;
24799;SDS011;12897;50.812;4.430;2022-07-09T11:39:08;10.18;;;3.72;;
24799;SDS011;12897;50.812;4.430;2022-07-09T11:41:42;4.15;;;3.00;;
24799;SDS011;12897;50.812;4.430;2022-07-09T11:44:11;8.40;;;4.08;;
24799;SDS011;12897;50.812;4.430;2022-07-09T11:47:09;6.95;;;2.72;;
24799;SDS011;12897;50.812;4.430;2022-07-09T11:49:44;6.47;;;2.10;;
24799;SDS011;12897;50.812;4.430;2022-07-09T11:52:19;5.78;;;2.58;;
24799;SDS011;12897;50.812;4.430;2022-07-09T11:55:02;7.72;;;2.33;;
24799;SDS011;12897;50.812;4.430;2022-07-09T11:57:35;4.03;;;2.10;;
24799;SDS011;12897;50.812;4.430;2022-07-09T12:00:19;5.22;;;2.27;;
24799;SDS011;12897;50.812;4.430;2022-07-09T12:02:35;7.58;;;2.40;;
24799;SDS011;12897;50.812;4.430;2022-07-09T12:05:07;4.95;;;2.60;;
24799;SDS011;12897;50.812;4.430;2022-07-09T12:07:35;6.70;;;2.35;;
24799;SDS011;12897;50.812;4.430;2022-07-09T12:10:03;5.85;;;2.42;;
24799;SDS011;12897;50.812;4.430;2022-07-09T12:12:36;5.80;;;2.30;;
24799;SDS011;12897;50.812;4.430;2022-07-09T12:15:10;7.03;;;2.20;;
24799;SDS011;12897;50.812;4.430;2022-07-09T12:17:38;3.55;;;1.95;;
24799;SDS011;12897;50.812;4.430;2022-07-09T12:20:05;5.08;;;1.62;;
24799;SDS011;12897;50.812;4.430;2022-07-09T12:22:35;6.83;;;1.75;;
24799;SDS011;12897;50.812;4.430;2022-07-09T12:25:04;6.87;;;1.75;;
24799;SDS011;12897;50.812;4.430;2022-07-09T12:27:32;6.30;;;1.50;;
24799;SDS011;12897;50.812;4.430;2022-07-09T12:30:01;2.25;;;1.20;;
24799;SDS011;12897;50.812;4.430;2022-07-09T12:34:57;3.55;;;1.42;;
24799;SDS011;12897;50.812;4.430;2022-07-09T12:37:25;4.70;;;2.00;;
24799;SDS011;12897;50.812;4.430;2022-07-09T12:39:53;5.97;;;2.20;;
24799;SDS011;12897;50.812;4.430;2022-07-09T12:42:20;6.58;;;1.75;;
24799;SDS011;12897;50.812;4.430;2022-07-09T12:44:48;5.30;;;1.70;;
24799;SDS011;12897;50.812;4.430;2022-07-09T12:47:16;14.73;;;2.20;;
24799;SDS011;12897;50.812;4.430;2022-07-09T12:49:43;8.35;;;2.62;;
24799;SDS011;12897;50.812;4.430;2022-07-09T12:52:14;4.78;;;2.40;;
24799;SDS011;12897;50.812;4.430;2022-07-09T12:54:41;5.25;;;2.33;;
24799;SDS011;12897;50.812;4.430;2022-07-09T12:57:09;7.47;;;2.15;;
24799;SDS011;12897;50.812;4.430;2022-07-09T12:59:37;5.42;;;2.08;;
24799;SDS011;12897;50.812;4.430;2022-07-09T13:02:05;4.78;;;2.00;;
24799;SDS011;12897;50.812;4.430;2022-07-09T13:04:34;3.08;;;2.22;;
24799;SDS011;12897;50.812;4.430;2022-07-09T13:07:01;6.45;;;2.10;;
24799;SDS011;12897;50.812;4.430;2022-07-09T13:09:29;4.83;;;2.08;;
24799;SDS011;12897;50.812;4.430;2022-07-09T13:11:57;4.00;;;1.70;;
24799;SDS011;12897;50.812;4.430;2022-07-09T13:14:26;3.85;;;1.40;;
24799;SDS011;12897;50.812;4.430;2022-07-09T13:16:53;5.72;;;1.45;;
24799;SDS011;12897;50.812;4.430;2022-07-09T13:19:21;7.30;;;1.62;;
24799;SDS011;12897;50.812;4.430;2022-07-09T13:21:49;2.52;;;1.20;;
24799;SDS011;12897;50.812;4.430;2022-07-09T13:24:18;2.10;;;1.32;;
24799;SDS011;12897;50.812;4.430;2022-07-09T13:26:46;3.10;;;1.70;;
24799;SDS011;12897;50.812;4.430;2022-07-09T13:29:13;7.22;;;1.40;;
24799;SDS011;12897;50.812;4.430;2022-07-09T13:31:41;8.80;;;1.60;;
24799;SDS011;12897;50.812;4.430;2022-07-09T13:34:08;3.22;;;1.70;;
24799;SDS011;12897;50.812;4.430;2022-07-09T13:36:37;3.22;;;1.35;;
24799;SDS011;12897;50.812;4.430;2022-07-09T13:39:04;2.12;;;1.20;;
24799;SDS011;12897;50.812;4.430;2022-07-09T13:41:32;2.25;;;1.27;;
24799;SDS011;12897;50.812;4.430;2022-07-09T13:43:59;3.90;;;1.62;;
24799;SDS011;12897;50.812;4.430;2022-07-09T13:46:27;6.33;;;1.60;;
24799;SDS011;12897;50.812;4.430;2022-07-09T13:48:55;2.75;;;1.50;;
24799;SDS011;12897;50.812;4.430;2022-07-09T13:51:22;3.55;;;1.60;;
24799;SDS011;12897;50.812;4.430;2022-07-09T13:53:52;4.90;;;1.50;;
24799;SDS011;12897;50.812;4.430;2022-07-09T13:56:20;3.98;;;1.40;;
24799;SDS011;12897;50.812;4.430;2022-07-09T13:58:47;5.60;;;1.45;;
24799;SDS011;12897;50.812;4.430;2022-07-09T14:01:15;4.65;;;1.70;;
24799;SDS011;12897;50.812;4.430;2022-07-09T14:03:42;2.67;;;1.45;;
24799;SDS011;12897;50.812;4.430;2022-07-09T14:06:10;5.33;;;1.30;;
24799;SDS011;12897;50.812;4.430;2022-07-09T14:08:38;2.92;;;1.47;;
24799;SDS011;12897;50.812;4.430;2022-07-09T14:11:06;2.20;;;1.20;;
24799;SDS011;12897;50.812;4.430;2022-07-09T14:13:33;6.85;;;1.57;;
24799;SDS011;12897;50.812;4.430;2022-07-09T14:16:02;2.92;;;1.25;;
24799;SDS011;12897;50.812;4.430;2022-07-09T14:18:30;5.62;;;1.62;;
24799;SDS011;12897;50.812;4.430;2022-07-09T14:20:58;6.00;;;1.52;;
24799;SDS011;12897;50.812;4.430;2022-07-09T14:23:26;7.15;;;1.70;;
24799;SDS011;12897;50.812;4.430;2022-07-09T14:25:54;5.65;;;1.40;;
24799;SDS011;12897;50.812;4.430;2022-07-09T14:28:22;4.53;;;1.67;;
24799;SDS011;12897;50.812;4.430;2022-07-09T14:30:50;3.35;;;1.40;;
24799;SDS011;12897;50.812;4.430;2022-07-09T14:33:17;4.95;;;1.40;;
24799;SDS011;12897;50.812;4.430;2022-07-09T14:35:47;3.25;;;1.30;;
24799;SDS011;12897;50.812;4.430;2022-07-09T14:38:14;2.83;;;1.30;;
24799;SDS011;12897;50.812;4.430;2022-07-09T14:40:42;5.15;;;1.52;;
24799;SDS011;12897;50.812;4.430;2022-07-09T14:43:10;4.25;;;1.60;;
24799;SDS011;12897;50.812;4.430;2022-07-09T14:48:08;6.65;;;1.77;;
24799;SDS011;12897;50.812;4.430;2022-07-09T14:50:37;8.55;;;1.55;;
24799;SDS011;12897;50.812;4.430;2022-07-09T14:55:33;6.70;;;1.80;;
24799;SDS011;12897;50.812;4.430;2022-07-09T14:58:02;5.22;;;1.57;;
24799;SDS011;12897;50.812;4.430;2022-07-09T15:00:29;6.25;;;1.60;;
24799;SDS011;12897;50.812;4.430;2022-07-09T15:02:58;9.33;;;1.70;;
24799;SDS011;12897;50.812;4.430;2022-07-09T15:05:25;5.70;;;2.05;;